Time;durP1;ratioP1;P1;durP2;ratioP2;P2;SDS_P1;SDS_P2;PMS_P1;PMS_P2;Temp;Humidity;BMP_temperature;BMP_pressure;BME280_temperature;BME280_humidity;BME280_pressure;Samples;Min_cycle;Max_cycle;Signal;HPM_P1;HPM_P2
2022/09/10 00:00:42;;;;;;;2.22;0.90;;;14.30;99.90;;;;;;4775230;29;20054;-86
2022/09/10 00:03:11;;;;;;;1.73;1.08;;;14.30;99.90;;;;;;4774367;29;20397;-87
2022/09/10 00:05:43;;;;;;;2.17;0.98;;;14.30;99.90;;;;;;4773706;30;20039;-87
2022/09/10 00:08:10;;;;;;;2.55;0.98;;;14.30;99.90;;;;;;4773433;29;20706;-87
2022/09/10 00:10:47;;;;;;;2.08;1.20;;;14.30;99.90;;;;;;4789744;29;20047;-86
2022/09/10 00:13:15;;;;;;;1.17;0.90;;;14.40;99.90;;;;;;4788107;29;20147;-86
2022/09/10 00:15:42;;;;;;;1.10;0.90;;;14.50;99.90;;;;;;4783511;29;20401;-86
2022/09/10 00:18:09;;;;;;;1.60;0.75;;;14.40;99.90;;;;;;4773361;29;20047;-86
2022/09/10 00:20:41;;;;;;;2.63;1.30;;;14.40;99.90;;;;;;4773372;30;20504;-87
2022/09/10 00:23:07;;;;;;;1.83;0.90;;;14.50;99.90;;;;;;4790798;29;20059;-86
2022/09/10 00:25:32;;;;;;;2.22;1.33;;;14.40;99.90;;;;;;4789692;29;20047;-85
2022/09/10 00:27:59;;;;;;;1.95;0.80;;;14.40;99.90;;;;;;4789456;29;20113;-86
2022/09/10 00:30:26;;;;;;;2.17;0.98;;;14.40;99.90;;;;;;4773382;30;20044;-87
2022/09/10 00:32:53;;;;;;;1.38;0.90;;;14.40;99.90;;;;;;4773352;30;20063;-87
2022/09/10 00:35:19;;;;;;;1.17;0.80;;;14.50;99.90;;;;;;4790027;29;20066;-86
2022/09/10 00:37:45;;;;;;;1.60;1.10;;;14.50;99.90;;;;;;4787779;29;20043;-86
2022/09/10 00:40:12;;;;;;;1.60;1.10;;;14.50;99.90;;;;;;4772354;29;20053;-87
2022/09/10 00:42:42;;;;;;;2.00;0.80;;;14.50;99.90;;;;;;4789289;29;20427;-88
2022/09/10 00:45:17;;;;;;;1.60;0.90;;;14.60;99.90;;;;;;4774585;29;20129;-86
2022/09/10 00:47:45;;;;;;;1.58;0.88;;;14.60;99.90;;;;;;4772612;30;20051;-86
2022/09/10 00:50:24;;;;;;;1.38;0.80;;;14.60;99.90;;;;;;4772611;29;20140;-87
2022/09/10 00:52:55;;;;;;;1.42;0.77;;;14.70;99.90;;;;;;4772496;30;20055;-87
2022/09/10 00:55:21;;;;;;;1.83;1.00;;;14.70;99.90;;;;;;4779520;29;20530;-87
2022/09/10 00:57:51;;;;;;;1.67;0.98;;;14.70;99.90;;;;;;4772385;30;20386;-88
2022/09/10 01:00:17;;;;;;;2.63;1.15;;;14.60;99.90;;;;;;4787169;29;20130;-87
2022/09/10 01:02:43;;;;;;;1.48;1.00;;;14.20;99.90;;;;;;4788315;29;20118;-86
2022/09/10 01:05:10;;;;;;;1.42;0.90;;;14.80;99.90;;;;;;4772685;29;20604;-87
2022/09/10 01:07:37;;;;;;;1.90;1.23;;;14.90;99.90;;;;;;4772231;30;20043;-88
2022/09/10 01:10:07;;;;;;;1.27;0.63;;;15.20;99.90;;;;;;4774005;30;20584;-87
2022/09/10 01:12:52;;;;;;;1.20;0.80;;;14.80;99.90;;;;;;4774791;29;20119;-88
2022/09/10 01:15:30;;;;;;;1.70;0.85;;;14.90;99.90;;;;;;4774350;29;20055;-87
2022/09/10 01:18:29;;;;;;;1.50;0.90;;;14.90;99.90;;;;;;4772157;30;20055;-87
2022/09/10 01:21:03;;;;;;;1.45;0.85;;;14.90;99.90;;;;;;4793140;29;20138;-87
2022/09/10 01:23:48;;;;;;;2.67;1.10;;;14.90;99.90;;;;;;4776962;29;20042;-86
2022/09/10 01:26:32;;;;;;;1.35;0.82;;;14.90;99.90;;;;;;4791620;29;20055;-87
2022/09/10 01:29:13;;;;;;;2.28;0.90;;;14.90;99.90;;;;;;4779561;30;20122;-87
2022/09/10 01:31:52;;;;;;;2.13;1.20;;;15.00;99.90;;;;;;4772066;29;20099;-87
2022/09/10 01:35:03;;;;;;;1.52;1.00;;;15.00;99.90;;;;;;4771960;29;20504;-88
2022/09/10 01:37:31;;;;;;;1.92;1.35;;;15.10;99.90;;;;;;4771052;29;20058;-90
2022/09/10 01:40:02;;;;;;;1.73;1.20;;;15.30;99.90;;;;;;4787805;29;20126;-86
2022/09/10 01:42:28;;;;;;;1.98;1.05;;;15.00;99.90;;;;;;4771646;29;20138;-88
2022/09/10 01:45:01;;;;;;;1.40;0.90;;;15.00;99.90;;;;;;4786779;29;20136;-86
2022/09/10 01:47:45;;;;;;;2.75;1.25;;;15.10;99.90;;;;;;4772405;29;20047;-87
2022/09/10 01:50:29;;;;;;;2.00;1.10;;;15.10;99.90;;;;;;4757016;30;20051;-86
2022/09/10 01:52:57;;;;;;;2.42;1.42;;;15.10;99.90;;;;;;4787045;29;20137;-87
2022/09/10 01:55:54;;;;;;;2.35;1.23;;;15.10;99.90;;;;;;4786694;29;20059;-86
2022/09/10 01:58:41;;;;;;;2.58;1.20;;;15.10;99.90;;;;;;4785902;29;20137;-87
2022/09/10 02:01:28;;;;;;;1.70;1.20;;;15.10;99.90;;;;;;4787795;29;20456;-87
2022/09/10 02:04:04;;;;;;;;;;;15.10;99.90;;;;;;4786194;30;20059;-89
2022/09/10 02:06:34;;;;;;;2.47;1.38;;;15.10;99.90;;;;;;4788186;29;19926;-87
2022/09/10 02:09:01;;;;;;;2.00;1.38;;;15.10;99.90;;;;;;4771412;30;20056;-88
2022/09/10 02:11:27;;;;;;;3.00;1.45;;;15.10;99.90;;;;;;4788121;29;20528;-89
2022/09/10 02:13:54;;;;;;;2.60;1.38;;;15.10;99.90;;;;;;4779972;29;20170;-87
2022/09/10 02:16:36;;;;;;;2.55;1.48;;;15.10;99.90;;;;;;4773113;30;20058;-87
2022/09/10 02:19:03;;;;;;;2.38;1.50;;;15.20;99.90;;;;;;4772302;30;20051;-88
2022/09/10 02:21:30;;;;;;;2.20;1.30;;;15.10;99.90;;;;;;4768793;30;20498;-87
2022/09/10 02:24:09;;;;;;;3.95;1.33;;;15.20;99.90;;;;;;4768947;30;20062;-87
2022/09/10 02:26:40;;;;;;;2.33;1.50;;;15.20;99.90;;;;;;4764507;30;20048;-87
2022/09/10 02:29:06;;;;;;;2.17;1.38;;;15.20;99.90;;;;;;4771509;30;20058;-89
2022/09/10 02:31:32;;;;;;;3.80;1.30;;;15.50;99.90;;;;;;4769312;30;20047;-88
2022/09/10 02:33:58;;;;;;;3.53;1.65;;;15.20;99.90;;;;;;4766244;30;20140;-87
2022/09/10 02:36:24;;;;;;;2.78;1.30;;;15.20;99.90;;;;;;4770996;30;20051;-86
2022/09/10 02:38:55;;;;;;;2.90;1.90;;;15.20;99.90;;;;;;4771360;30;20591;-87
2022/09/10 02:41:24;;;;;;;2.50;1.65;;;15.20;99.90;;;;;;4771001;30;20549;-87
2022/09/10 02:43:54;;;;;;;2.58;1.60;;;15.20;99.90;;;;;;4764431;30;20399;-86
2022/09/10 02:46:21;;;;;;;2.95;1.80;;;15.20;99.90;;;;;;4765398;30;20055;-87
2022/09/10 02:48:46;;;;;;;3.42;1.73;;;15.20;99.90;;;;;;4769797;30;20051;-87
2022/09/10 02:51:12;;;;;;;3.58;2.40;;;15.20;99.90;;;;;;4757873;30;20490;-87
2022/09/10 02:53:38;;;;;;;3.63;2.35;;;15.20;99.90;;;;;;4785928;30;20055;-87
2022/09/10 02:56:06;;;;;;;2.90;1.80;;;15.20;99.90;;;;;;4763303;30;20051;-87
2022/09/10 02:58:32;;;;;;;4.20;2.00;;;15.20;99.90;;;;;;4770740;30;20105;-88
2022/09/10 03:01:19;;;;;;;3.75;2.33;;;15.20;99.90;;;;;;4763422;30;20163;-87
2022/09/10 03:03:50;;;;;;;4.93;2.47;;;15.20;99.90;;;;;;4763753;30;20048;-86
2022/09/10 03:06:16;;;;;;;6.88;3.55;;;15.20;99.90;;;;;;4776143;30;20132;-86
2022/09/10 03:08:42;;;;;;;4.72;2.75;;;15.10;99.90;;;;;;4764923;30;20048;-87
2022/09/10 03:11:08;;;;;;;5.40;3.40;;;15.10;99.90;;;;;;4763538;30;20117;-87
2022/09/10 03:13:37;;;;;;;5.35;2.70;;;15.10;99.90;;;;;;4770692;30;20039;-86
2022/09/10 03:16:08;;;;;;;5.68;3.15;;;14.80;99.90;;;;;;4770152;30;20052;-88
2022/09/10 03:18:40;;;;;;;5.43;3.25;;;15.20;99.90;;;;;;4766790;30;20040;-88
2022/09/10 03:21:11;;;;;;;5.82;3.22;;;15.10;99.90;;;;;;4771096;29;20066;-88
2022/09/10 03:23:40;;;;;;;5.88;3.10;;;15.20;99.90;;;;;;4777045;30;20071;-88
2022/09/10 03:26:13;;;;;;;5.63;3.25;;;15.20;99.90;;;;;;4769913;30;20056;-88
2022/09/10 03:28:42;;;;;;;5.25;3.35;;;15.40;99.90;;;;;;4786292;29;20047;-87
2022/09/10 03:31:14;;;;;;;5.78;2.88;;;15.60;99.90;;;;;;4771936;30;20051;-88
2022/09/10 03:33:51;;;;;;;5.32;3.25;;;15.10;99.90;;;;;;4771238;30;20055;-87
2022/09/10 03:36:21;;;;;;;7.43;4.00;;;15.20;99.90;;;;;;4792412;29;20040;-87
2022/09/10 03:38:47;;;;;;;6.82;3.20;;;15.40;99.90;;;;;;4780309;30;20049;-88
2022/09/10 03:41:13;;;;;;;6.80;3.75;;;15.20;99.90;;;;;;4774076;30;20110;-88
2022/09/10 03:43:39;;;;;;;5.68;4.30;;;15.30;99.90;;;;;;4772031;30;20052;-88
2022/09/10 03:46:05;;;;;;;6.70;4.20;;;15.40;99.90;;;;;;4771656;30;20054;-87
2022/09/10 03:48:31;;;;;;;7.43;4.30;;;15.20;99.90;;;;;;4756511;30;20048;-86
2022/09/10 03:50:57;;;;;;;6.75;4.18;;;15.60;99.90;;;;;;4771057;30;20142;-87
2022/09/10 03:53:23;;;;;;;8.55;4.60;;;15.20;99.90;;;;;;4770434;30;20135;-87
2022/09/10 03:55:50;;;;;;;6.13;3.40;;;15.20;99.90;;;;;;4771460;30;20062;-88
2022/09/10 03:58:17;;;;;;;7.15;2.95;;;15.10;99.90;;;;;;4771721;30;20058;-87
2022/09/10 04:00:43;;;;;;;7.47;3.55;;;15.20;99.90;;;;;;4777260;30;20047;-87
2022/09/10 04:03:20;;;;;;;7.68;3.83;;;15.10;99.90;;;;;;4755138;30;20066;-87
2022/09/10 04:05:51;;;;;;;5.95;3.70;;;15.20;99.90;;;;;;4774712;30;20086;-88
2022/09/10 04:08:19;;;;;;;6.55;3.88;;;15.10;99.90;;;;;;4772061;30;20402;-88
2022/09/10 04:10:47;;;;;;;5.78;3.90;;;15.60;99.90;;;;;;4771448;30;20633;-87
2022/09/10 04:13:13;;;;;;;6.43;3.90;;;15.20;99.90;;;;;;4776001;30;20478;-87
2022/09/10 04:15:40;;;;;;;4.03;2.72;;;15.00;99.90;;;;;;4784880;29;20081;-89
2022/09/10 04:18:11;;;;;;;7.05;3.83;;;15.40;99.90;;;;;;4769989;30;20055;-87
2022/09/10 04:20:37;;;;;;;8.93;3.92;;;15.20;99.90;;;;;;4770460;30;20494;-90
2022/09/10 04:23:04;;;;;;;5.18;3.55;;;15.20;99.90;;;;;;4768825;30;20138;-87
2022/09/10 04:25:32;;;;;;;5.90;3.20;;;15.20;99.90;;;;;;4769397;30;20064;-88
2022/09/10 04:27:58;;;;;;;5.88;3.53;;;15.20;99.90;;;;;;4769617;30;20051;-87
2022/09/10 04:30:24;;;;;;;6.78;3.83;;;15.20;99.90;;;;;;4768553;30;20052;-86
2022/09/10 04:32:51;;;;;;;5.68;3.35;;;15.20;99.90;;;;;;4768651;30;20131;-87
2022/09/10 04:35:19;;;;;;;7.18;4.03;;;15.30;99.90;;;;;;4769439;30;20052;-87
2022/09/10 04:37:45;;;;;;;7.68;4.32;;;15.20;99.90;;;;;;4768109;30;20105;-87
2022/09/10 04:40:11;;;;;;;6.63;4.18;;;15.20;99.90;;;;;;4777189;30;20046;-87
2022/09/10 04:42:37;;;;;;;8.10;4.55;;;15.20;99.90;;;;;;4760642;30;20052;-88
2022/09/10 04:45:09;;;;;;;7.05;4.30;;;15.20;99.90;;;;;;4761175;30;20047;-86
2022/09/10 04:47:37;;;;;;;7.20;4.25;;;15.40;99.90;;;;;;4754141;30;20051;-87
2022/09/10 04:50:05;;;;;;;8.55;4.68;;;15.40;99.90;;;;;;4767229;30;20142;-87
2022/09/10 04:52:31;;;;;;;8.98;4.47;;;15.20;99.90;;;;;;4764830;30;20044;-88
2022/09/10 04:54:59;;;;;;;7.88;4.25;;;15.20;99.90;;;;;;4760992;30;20040;-87
2022/09/10 04:57:31;;;;;;;8.27;4.63;;;15.30;99.90;;;;;;4769807;30;20051;-88
2022/09/10 05:00:05;;;;;;;6.13;4.13;;;15.20;99.90;;;;;;4762088;30;20052;-88
2022/09/10 05:02:39;;;;;;;7.00;3.80;;;15.20;99.90;;;;;;4768854;30;20059;-88
2022/09/10 05:05:08;;;;;;;7.75;4.05;;;15.20;99.90;;;;;;4768029;30;20135;-87
2022/09/10 05:07:45;;;;;;;8.32;4.47;;;15.50;99.90;;;;;;4769936;30;20134;-88
2022/09/10 05:10:23;;;;;;;6.85;4.15;;;15.20;99.90;;;;;;4760938;30;20094;-87
2022/09/10 05:13:10;;;;;;;;;;;;;;;;;;;;;
2022/09/10 05:15:50;;;;;;;;;;;;;;;;;;;;;
2022/09/10 05:18:27;;;;;;;7.78;4.05;;;15.30;99.90;;;;;;4765193;30;20060;-87
2022/09/10 05:20:53;;;;;;;7.45;4.32;;;15.30;99.90;;;;;;4769207;29;20080;-87
2022/09/10 05:23:21;;;;;;;8.15;4.70;;;15.00;99.90;;;;;;4780988;29;20142;-87
2022/09/10 05:25:47;;;;;;;8.65;4.78;;;15.30;99.90;;;;;;4772531;30;20051;-88
2022/09/10 05:28:18;;;;;;;8.23;4.78;;;15.30;99.90;;;;;;4787892;29;20112;-88
2022/09/10 05:30:44;;;;;;;9.32;5.65;;;15.30;99.90;;;;;;4794799;29;20047;-88
2022/09/10 05:33:24;;;;;;;7.88;4.68;;;15.30;99.90;;;;;;4778594;29;20122;-87
2022/09/10 05:35:53;;;;;;;12.73;6.53;;;15.30;99.90;;;;;;4786704;29;20104;-88
2022/09/10 05:38:23;;;;;;;12.32;7.13;;;15.30;99.90;;;;;;4771431;30;20058;-87
2022/09/10 05:40:49;;;;;;;9.95;4.47;;;15.30;99.90;;;;;;4771301;29;20051;-88
2022/09/10 05:43:15;;;;;;;10.52;5.35;;;15.30;99.90;;;;;;4772468;30;20061;-87
2022/09/10 05:45:41;;;;;;;8.93;4.72;;;15.30;99.90;;;;;;4786384;29;20039;-88
2022/09/10 05:48:10;;;;;;;8.10;4.20;;;15.40;99.90;;;;;;4771421;30;20105;-87
2022/09/10 05:50:38;;;;;;;7.13;4.50;;;15.40;99.90;;;;;;4771676;30;20130;-88
2022/09/10 05:53:09;;;;;;;8.25;5.03;;;15.40;99.90;;;;;;4788448;29;20134;-88
2022/09/10 05:55:47;;;;;;;7.88;4.68;;;15.40;99.90;;;;;;4775960;30;20051;-87
2022/09/10 05:58:15;;;;;;;9.57;5.20;;;15.40;99.90;;;;;;4770912;30;20055;-87
2022/09/10 06:00:44;;;;;;;8.73;4.82;;;15.50;99.90;;;;;;4778851;30;20184;-87
2022/09/10 06:03:10;;;;;;;8.80;4.88;;;15.50;99.90;;;;;;4771023;29;20047;-87
2022/09/10 06:05:36;;;;;;;8.27;4.05;;;15.50;99.90;;;;;;4777637;30;20091;-86
2022/09/10 06:08:05;;;;;;;6.38;3.67;;;15.50;99.90;;;;;;4785760;29;20090;-87
2022/09/10 06:10:34;;;;;;;8.60;4.43;;;15.50;99.90;;;;;;4771691;30;20050;-87
2022/09/10 06:12:59;;;;;;;5.85;3.83;;;15.50;99.90;;;;;;4787472;29;20108;-87
2022/09/10 06:15:27;;;;;;;5.40;3.33;;;15.60;99.90;;;;;;4771108;29;20394;-86
2022/09/10 06:17:54;;;;;;;6.38;3.20;;;15.60;99.90;;;;;;4771379;30;20075;-86
2022/09/10 06:20:20;;;;;;;5.05;3.05;;;15.70;99.90;;;;;;4770780;29;20054;-86
2022/09/10 06:22:46;;;;;;;4.30;2.88;;;16.00;99.90;;;;;;4767290;30;20052;-86
2022/09/10 06:25:11;;;;;;;5.30;2.60;;;15.80;99.90;;;;;;4767366;30;20415;-86
2022/09/10 06:27:37;;;;;;;4.47;2.53;;;15.80;99.90;;;;;;4760304;30;20044;-87
2022/09/10 06:30:04;;;;;;;4.43;2.47;;;15.90;99.90;;;;;;4767401;30;20466;-87
2022/09/10 06:32:31;;;;;;;4.55;3.15;;;16.00;99.90;;;;;;4766194;30;20181;-87
2022/09/10 06:34:56;;;;;;;5.40;2.75;;;16.00;99.90;;;;;;4752373;30;20520;-87
2022/09/10 06:37:23;;;;;;;4.55;2.55;;;15.80;99.90;;;;;;4760808;30;20059;-86
2022/09/10 06:39:49;;;;;;;6.15;2.97;;;16.10;99.90;;;;;;4768184;30;20139;-87
2022/09/10 06:42:15;;;;;;;4.43;2.60;;;16.60;99.90;;;;;;4768314;30;20079;-88
2022/09/10 06:44:41;;;;;;;5.63;2.85;;;16.20;99.90;;;;;;4760080;30;20228;-87
2022/09/10 06:47:15;;;;;;;5.93;2.90;;;16.20;99.90;;;;;;4761019;30;20054;-87
2022/09/10 06:52:49;;;;;;;4.32;2.65;;;16.30;99.90;;;;;;4786704;24;20062;-85
2022/09/10 06:56:08;;;;;;;5.72;3.55;;;16.50;99.90;;;;;;4803307;24;20153;-86
2022/09/10 06:59:22;;;;;;;5.22;2.72;;;16.30;99.90;;;;;;4746798;30;20067;-89
2022/09/10 07:07:24;;;;;;;7.32;3.58;;;16.60;99.90;;;;;;4766612;29;20510;-90
2022/09/10 08:01:59;;;;;;;5.13;3.40;;;17.10;99.90;;;;;;4969470;24;20087;-87
2022/09/10 08:05:00;;;;;;;6.40;3.75;;;17.10;99.90;;;;;;4788253;30;20047;-89
2022/09/10 08:07:34;;;;;;;6.60;3.95;;;17.20;99.90;;;;;;4824638;24;20155;-88
2022/09/10 08:37:32;;;;;;;6.10;3.67;;;17.40;99.90;;;;;;4942927;24;20090;-88
2022/09/10 08:43:06;;;;;;;5.95;3.47;;;17.50;99.90;;;;;;4409738;27;20083;-91
2022/09/10 08:45:51;;;;;;;7.82;4.20;;;17.90;99.90;;;;;;4756864;30;20531;-89
2022/09/10 08:48:44;;;;;;;8.30;4.03;;;17.50;99.90;;;;;;4787957;29;20050;-87
2022/09/10 08:51:19;;;;;;;6.65;3.35;;;17.50;99.90;;;;;;4768402;30;20083;-86
2022/09/10 08:53:59;;;;;;;7.07;3.60;;;17.60;99.90;;;;;;4767205;30;20134;-88
2022/09/10 08:56:26;;;;;;;7.53;3.75;;;17.60;99.90;;;;;;4787393;30;20051;-85
2022/09/10 08:59:21;;;;;;;4.85;3.05;;;17.60;99.90;;;;;;4787169;30;20039;-87
2022/09/10 09:01:54;;;;;;;8.10;3.97;;;17.60;99.90;;;;;;4771414;30;20524;-89
2022/09/10 09:04:39;;;;;;;6.40;3.88;;;17.70;99.90;;;;;;4772012;30;20567;-86
2022/09/10 09:07:13;;;;;;;8.27;4.35;;;17.70;99.90;;;;;;4766355;30;20058;-86
2022/09/10 09:09:39;;;;;;;5.43;3.60;;;17.70;99.90;;;;;;4756183;30;20055;-88
2022/09/10 09:12:19;;;;;;;6.95;3.58;;;17.60;99.90;;;;;;4771930;30;20062;-87
2022/09/10 09:15:24;;;;;;;6.97;3.15;;;17.70;99.90;;;;;;4770752;30;20047;-88
2022/09/10 09:18:14;;;;;;;5.95;2.75;;;17.70;99.90;;;;;;4717944;30;20079;-86
2022/09/10 09:20:44;;;;;;;5.60;3.20;;;17.70;99.90;;;;;;4715446;30;20060;-86
2022/09/10 09:23:21;;;;;;;7.60;3.78;;;17.60;99.90;;;;;;4731786;30;20123;-87
2022/09/10 09:25:58;;;;;;;7.35;3.67;;;17.80;99.90;;;;;;4731048;30;20048;-85
2022/09/10 09:28:28;;;;;;;;;;;17.80;99.90;;;;;;4731605;30;20103;-85
2022/09/10 09:30:56;;;;;;;6.45;3.00;;;17.90;99.90;;;;;;4731396;30;19930;-86
2022/09/10 09:33:23;;;;;;;6.22;3.30;;;17.80;99.90;;;;;;4702430;30;20064;-87
2022/09/10 09:36:02;;;;;;;7.40;4.00;;;18.00;99.90;;;;;;4731133;30;20048;-86
2022/09/10 09:38:41;;;;;;;4.88;3.05;;;18.30;99.90;;;;;;4716938;30;20142;-87
2022/09/10 09:41:42;;;;;;;5.13;2.80;;;18.30;99.90;;;;;;4716791;30;20126;-88
2022/09/10 09:44:37;;;;;;;4.70;2.38;;;18.40;99.90;;;;;;4731640;30;20086;-88
2022/09/10 09:47:03;;;;;;;4.90;2.67;;;18.50;99.90;;;;;;4730861;30;20061;-89
2022/09/10 09:49:29;;;;;;;5.03;2.78;;;18.50;99.90;;;;;;4717264;30;20101;-87
2022/09/10 09:51:57;;;;;;;5.70;3.20;;;18.80;99.90;;;;;;4730842;30;20103;-85
2022/09/10 09:54:30;;;;;;;6.55;3.08;;;18.70;99.90;;;;;;4764908;30;20146;-88
2022/09/10 09:56:58;;;;;;;5.95;2.70;;;18.70;99.90;;;;;;4785607;30;20088;-87
2022/09/10 09:59:35;;;;;;;5.40;3.22;;;18.70;99.90;;;;;;4786568;30;20055;-86
2022/09/10 10:02:11;;;;;;;5.57;2.88;;;18.70;99.90;;;;;;4770134;30;20043;-86
2022/09/10 10:04:38;;;;;;;5.65;2.92;;;18.80;99.90;;;;;;4770477;30;20058;-87
2022/09/10 10:07:04;;;;;;;5.03;2.90;;;18.80;99.90;;;;;;4770857;30;20062;-87
2022/09/10 10:09:33;;;;;;;5.63;2.67;;;18.80;99.90;;;;;;4770115;30;20052;-87
2022/09/10 10:12:03;;;;;;;7.15;4.07;;;18.80;99.90;;;;;;4770342;30;20455;-85
2022/09/10 10:14:38;;;;;;;5.55;3.25;;;18.70;99.90;;;;;;4783997;30;20070;-85
2022/09/10 10:20:16;;;;;;;4.63;3.03;;;18.80;99.90;;;;;;4749165;30;20553;-85
2022/09/10 10:22:47;;;;;;;6.85;3.30;;;18.90;99.90;;;;;;4769803;30;20127;-86
2022/09/10 10:25:47;;;;;;;4.53;2.45;;;18.90;99.90;;;;;;4770084;30;20062;-86
2022/09/10 10:28:26;;;;;;;6.20;3.10;;;19.00;99.90;;;;;;4769627;30;20193;-86
2022/09/10 10:30:58;;;;;;;6.05;3.40;;;19.00;99.90;;;;;;4770351;30;20059;-87
2022/09/10 10:33:32;;;;;;;7.13;3.15;;;19.00;99.90;;;;;;4785483;29;20051;-87
2022/09/10 10:36:27;;;;;;;5.40;2.70;;;19.10;99.90;;;;;;4755162;30;20058;-85
2022/09/10 10:39:12;;;;;;;6.47;3.28;;;19.20;99.90;;;;;;4780750;30;20059;-87
2022/09/10 10:45:41;;;;;;;5.57;2.83;;;19.20;99.90;;;;;;4766383;30;20366;-87
2022/09/10 10:55:39;;;;;;;4.90;2.70;;;19.20;99.90;;;;;;4788233;30;20066;-85
2022/09/10 10:58:32;;;;;;;5.05;3.22;;;19.20;99.90;;;;;;4773188;30;20130;-89
2022/09/10 11:01:19;;;;;;;8.68;3.83;;;19.20;99.90;;;;;;4767334;30;20088;-87
2022/09/10 11:03:55;;;;;;;8.13;4.35;;;19.30;99.90;;;;;;4773941;29;20150;-86
2022/09/10 11:06:39;;;;;;;8.35;4.18;;;19.30;99.90;;;;;;4773174;30;20396;-87
2022/09/10 11:09:25;;;;;;;5.93;2.95;;;19.40;99.90;;;;;;4768033;30;20134;-88
2022/09/10 11:11:51;;;;;;;5.40;3.22;;;19.50;99.90;;;;;;4789953;29;20055;-86
2022/09/10 11:15:08;;;;;;;5.00;2.65;;;19.60;99.90;;;;;;4774079;30;20062;-88
2022/09/10 11:17:38;;;;;;;;;;;19.70;99.90;;;;;;4746938;30;20086;-87
2022/09/10 11:20:38;;;;;;;6.28;3.28;;;19.80;99.90;;;;;;4756475;30;19926;-84
2022/09/10 11:23:46;;;;;;;4.85;2.50;;;20.00;99.90;;;;;;4762080;30;20052;-85
2022/09/10 11:26:23;;;;;;;8.10;3.40;;;20.10;99.90;;;;;;4757529;30;20062;-88
2022/09/10 11:29:16;;;;;;;5.68;2.72;;;20.10;99.90;;;;;;4762944;30;20124;-87
2022/09/10 11:31:45;;;;;;;7.90;3.60;;;20.20;99.90;;;;;;4761411;30;20100;-85
2022/09/10 11:34:20;;;;;;;6.18;3.83;;;20.30;99.90;;;;;;4778044;29;20055;-86
2022/09/10 11:36:51;;;;;;;3.88;2.40;;;20.40;99.90;;;;;;4763476;30;20088;-85
2022/09/10 11:39:33;;;;;;;4.35;2.42;;;20.70;99.90;;;;;;4779560;29;20175;-86
2022/09/10 11:42:09;;;;;;;3.35;2.00;;;21.00;99.90;;;;;;4776197;30;20461;-86
2022/09/10 11:44:44;;;;;;;;;;;21.10;99.90;;;;;;4762271;30;20054;-86
2022/09/10 11:47:22;;;;;;;5.35;2.35;;;21.40;99.90;;;;;;4782505;30;19933;-85
2022/09/10 11:50:00;;;;;;;2.58;1.73;;;21.70;99.90;;;;;;4788340;29;20051;-85
2022/09/10 11:52:28;;;;;;;4.22;2.72;;;21.90;99.90;;;;;;4788843;30;20046;-85
2022/09/10 11:54:56;;;;;;;2.95;1.83;;;22.00;99.90;;;;;;4771729;30;20382;-85
2022/09/10 11:57:30;;;;;;;5.30;2.05;;;21.90;99.90;;;;;;4772018;30;20404;-85
2022/09/10 12:00:14;;;;;;;4.60;1.98;;;21.70;99.90;;;;;;4771164;30;20043;-85
2022/09/10 12:02:58;;;;;;;4.18;2.17;;;21.50;99.90;;;;;;4772528;29;20078;-86
2022/09/10 12:06:00;;;;;;;5.75;2.30;;;21.40;99.90;;;;;;4767569;30;20498;-86
2022/09/10 12:09:04;;;;;;;4.40;1.83;;;21.40;99.90;;;;;;4783242;30;20118;-85
2022/09/10 12:11:39;;;;;;;3.20;2.08;;;21.70;99.90;;;;;;4768034;30;20048;-86
2022/09/10 12:14:07;;;;;;;3.30;2.05;;;22.00;99.90;;;;;;4786608;30;20108;-86
2022/09/10 12:16:40;;;;;;;3.95;2.10;;;22.20;99.90;;;;;;4788570;30;20051;-86
2022/09/10 12:19:15;;;;;;;3.45;2.53;;;22.50;99.90;;;;;;4772001;30;20063;-86
2022/09/10 12:21:48;;;;;;;7.28;2.88;;;22.30;99.90;;;;;;4772366;30;20554;-86
2022/09/10 12:24:30;;;;;;;3.03;1.80;;;21.90;99.90;;;;;;4787406;30;20047;-86
2022/09/10 12:26:59;;;;;;;3.60;1.88;;;21.70;99.90;;;;;;4788146;30;20055;-86
2022/09/10 12:29:32;;;;;;;2.78;2.05;;;21.60;99.90;;;;;;4771970;30;20453;-86
2022/09/10 12:32:19;;;;;;;3.22;1.60;;;21.80;99.90;;;;;;4788094;30;20054;-86
2022/09/10 12:34:49;;;;;;;2.08;1.30;;;22.00;99.90;;;;;;4772395;30;20598;-86
2022/09/10 12:37:27;;;;;;;3.00;1.40;;;22.30;99.90;;;;;;4787283;30;21534;-86
2022/09/10 12:40:26;;;;;;;3.20;1.92;;;22.50;99.90;;;;;;4788099;30;20050;-85
2022/09/10 12:42:58;;;;;;;3.80;2.35;;;22.60;99.90;;;;;;4784659;30;20505;-86
2022/09/10 12:46:03;;;;;;;4.10;1.95;;;22.80;99.90;;;;;;4788622;30;20086;-86
2022/09/10 12:48:31;;;;;;;2.20;1.75;;;23.10;99.90;;;;;;4766016;30;20475;-85
2022/09/10 12:50:59;;;;;;;4.05;2.63;;;23.20;99.90;;;;;;4771822;30;20056;-85
2022/09/10 12:53:36;;;;;;;4.63;1.95;;;23.00;99.90;;;;;;4765300;30;20057;-86
2022/09/10 12:56:36;;;;;;;3.17;1.90;;;23.00;99.90;;;;;;4771417;30;20116;-86
2022/09/10 12:59:40;;;;;;;3.67;2.17;;;22.80;99.90;;;;;;4716779;30;20096;-86
2022/09/10 13:02:21;;;;;;;3.80;2.03;;;22.60;99.90;;;;;;4681156;30;20460;-86
2022/09/10 13:04:58;;;;;;;3.35;1.95;;;22.70;99.90;;;;;;4667045;30;20054;-86
2022/09/10 13:07:31;;;;;;;3.70;1.23;;;22.80;99.90;;;;;;4666786;30;20448;-85
2022/09/10 13:10:06;;;;;;;3.67;1.98;;;22.70;99.90;;;;;;4695694;30;20133;-86
2022/09/10 13:12:34;;;;;;;3.75;2.15;;;22.60;99.90;;;;;;4666604;30;20157;-86
2022/09/10 13:15:01;;;;;;;5.20;2.03;;;22.50;99.90;;;;;;4667086;30;20049;-86
2022/09/10 13:17:39;;;;;;;4.68;1.85;;;22.40;99.90;;;;;;4695086;30;20072;-85
2022/09/10 13:20:22;;;;;;;7.78;2.88;;;22.30;99.90;;;;;;4680998;30;20050;-85
2022/09/10 13:23:43;;;;;;;5.10;3.17;;;22.10;99.90;;;;;;4675911;30;20072;-85
2022/09/10 13:26:38;;;;;;;4.72;2.80;;;21.90;99.90;;;;;;4659101;30;20066;-86
2022/09/10 13:29:28;;;;;;;4.40;3.13;;;21.90;99.90;;;;;;4650151;30;20061;-85
2022/09/10 13:32:23;;;;;;;5.80;3.05;;;21.70;99.90;;;;;;4647028;30;20062;-85
2022/09/10 13:35:16;;;;;;;5.38;2.85;;;21.60;99.90;;;;;;4636031;30;20548;-86
2022/09/10 13:37:47;;;;;;;4.72;2.55;;;21.50;99.90;;;;;;4701547;30;20087;-86
2022/09/10 13:40:38;;;;;;;4.05;2.72;;;21.50;99.90;;;;;;4724513;30;20060;-85
2022/09/10 13:43:18;;;;;;;4.18;2.75;;;21.50;99.90;;;;;;4703254;30;20174;-85
2022/09/10 13:46:09;;;;;;;4.00;2.55;;;21.50;99.90;;;;;;4722147;30;20067;-85
2022/09/10 13:48:48;;;;;;;4.43;1.58;;;21.50;99.90;;;;;;4724420;30;20052;-84
2022/09/10 13:51:45;;;;;;;4.40;2.30;;;21.50;99.90;;;;;;4723845;30;20064;-84
2022/09/10 13:54:24;;;;;;;2.55;1.67;;;21.50;99.90;;;;;;4718004;30;20111;-86
2022/09/10 13:56:51;;;;;;;6.72;3.83;;;21.70;99.90;;;;;;4721740;30;20080;-85
2022/09/10 13:59:29;;;;;;;6.00;3.00;;;22.10;99.90;;;;;;4732811;30;20055;-85
2022/09/10 14:01:57;;;;;;;5.85;3.38;;;22.30;99.90;;;;;;4746938;30;20064;-85
2022/09/10 14:04:36;;;;;;;4.50;2.90;;;22.20;99.90;;;;;;4756727;30;20143;-85
2022/09/10 14:07:21;;;;;;;6.63;2.90;;;22.00;99.90;;;;;;4784165;30;20059;-86
2022/09/10 14:09:55;;;;;;;4.43;2.20;;;21.70;99.90;;;;;;4770705;30;20086;-86
2022/09/10 14:12:25;;;;;;;5.65;2.20;;;21.60;99.90;;;;;;4786873;30;20089;-85
2022/09/10 14:14:56;;;;;;;3.10;1.65;;;21.40;99.90;;;;;;4770869;30;20123;-85
2022/09/10 14:17:26;;;;;;;2.97;1.85;;;21.30;99.90;;;;;;4770949;30;20454;-86
2022/09/10 14:20:00;;;;;;;3.88;1.83;;;21.20;99.90;;;;;;4790190;29;20096;-86
2022/09/10 14:22:30;;;;;;;5.97;3.00;;;21.10;99.90;;;;;;4776428;30;20497;-86
2022/09/10 14:24:59;;;;;;;3.80;1.70;;;21.00;99.90;;;;;;4785782;30;20069;-85
2022/09/10 14:27:31;;;;;;;3.58;1.85;;;20.90;99.90;;;;;;4792992;30;20174;-85
2022/09/10 14:30:21;;;;;;;2.25;1.50;;;20.80;99.90;;;;;;4776359;30;20051;-85
2022/09/10 14:32:48;;;;;;;4.22;2.40;;;20.90;99.90;;;;;;4790818;29;20051;-85
2022/09/10 14:35:42;;;;;;;2.75;1.70;;;21.00;99.90;;;;;;4792902;30;20090;-86
2022/09/10 14:38:29;;;;;;;5.05;1.85;;;21.10;99.90;;;;;;4773002;30;20448;-86
2022/09/10 14:41:02;;;;;;;4.00;1.73;;;21.30;99.90;;;;;;4777848;30;20103;-86
2022/09/10 14:43:28;;;;;;;4.30;1.95;;;21.50;99.90;;;;;;4777406;30;20470;-85
2022/09/10 14:45:54;;;;;;;4.40;2.70;;;21.70;99.90;;;;;;4779926;30;20096;-86
2022/09/10 14:48:31;;;;;;;4.50;2.35;;;21.90;99.90;;;;;;4802292;29;20043;-85
2022/09/10 14:51:23;;;;;;;6.30;2.00;;;22.00;99.90;;;;;;4810681;30;20059;-86
2022/09/10 14:53:53;;;;;;;3.72;2.28;;;22.10;99.90;;;;;;4795647;30;20043;-85
2022/09/10 14:56:32;;;;;;;2.97;1.77;;;22.10;99.90;;;;;;4777794;30;20043;-85
2022/09/10 14:59:12;;;;;;;3.78;1.67;;;22.10;99.90;;;;;;4781503;30;20051;-85
2022/09/10 15:01:40;;;;;;;3.30;1.55;;;21.90;99.90;;;;;;4785976;30;20058;-84
2022/09/10 15:04:15;;;;;;;3.22;1.88;;;21.70;99.90;;;;;;4787887;30;20051;-84
2022/09/10 15:06:42;;;;;;;3.08;2.17;;;21.50;99.90;;;;;;4805873;30;20043;-85
2022/09/10 15:09:10;;;;;;;3.22;1.67;;;21.20;99.90;;;;;;4790086;30;20090;-85
2022/09/10 15:11:39;;;;;;;5.35;1.95;;;21.20;99.90;;;;;;4790930;30;20055;-85
2022/09/10 15:14:04;;;;;;;3.92;2.15;;;21.20;99.90;;;;;;4774458;30;20215;-84